« 郡山駐屯地創立65周年記念行事 郡山市 2018/4/22 sun | トップページ | 経由 中部国際空港 2018/5/15 tue »

2018/05/04

春雇 能登空港 2018/5/4 fri

巷はGWなる連休なのですが、なかなか空き時間がない中、ワラビ摂りに誘われて出かけました。

20180504_rjnw_00pl04

道すがらシップチェック PL04「やひこ」

20180504_rjnw_01ps203

PS203「のりくら」

20180504_rjnw_02cl68

CL68「たちかぜ」と高岡消防「やまと」

20180504_rjnw_03amaharashi

4月25日にオープンした道の駅「雨晴」に立ち寄り

20180504_rjnw_04amaharashi

ここにも世界で最も美しい富山湾 湾クラブ

20180504_rjnw_05amaharashi

天皇皇后両陛下御宿泊所記念碑

RJNW 040000Z 19006KT 9999 FEW005 SCT010 FEW015CB BKN050 09/08 Q1009

20180504_rjnw_06ja8947

結構車がありましたが、順調に能登空港に着きました

20180504_rjnw_07ja8947

20180504_rjnw_08ja8947

20180504_rjnw_09ja8947

ANA747 RJTT-RJNW JA8947 A320-211

RJNW 040100Z 20006KT 160V230 9999 FEW010 SCT020 10/09 Q1009

20180504_rjnw_10ja8947

VOR山周辺は、松が伸びすぎて、来年は撮影できないかも・・・

20180504_rjnw_11ja8947

20180504_rjnw_12ja8947

20180504_rjnw_13ja8947

ANA748 RJNW-RJTT JA8947 A320-211

20180504_rjnw_14ja8947

時より雷がなったり、土砂降りになったりの不安定な天候です。

RJNW 040200Z 23012KT 190V260 9999 FEW020 SCT030 BKN/// 12/08 Q1009

20180504_rjnw_15b18652

春チャーターのダイナさん。今年は7往復

20180504_rjnw_16b18652

20180504_rjnw_17b18652

CAL7592 RCTP-RJNW B-18652 B737-8Q8

20180504_rjnw_18b18652

フロントギアがクリーム色の異色なやつ

20180504_rjnw_19b18652

時間がなくて、出発は見送れません。

20180504_rjnw_20endo

夏場所も期待できる「遠藤」さん

あー、夏休みほしー 

今日は富山にGVIが2機も連続で来る、これまた珍しい日。大陸の金持ちは、やることが違うわ・・・

|

« 郡山駐屯地創立65周年記念行事 郡山市 2018/4/22 sun | トップページ | 経由 中部国際空港 2018/5/15 tue »

能登空港」カテゴリの記事

警務消防」カテゴリの記事

海上保安庁」カテゴリの記事

コメント

コメントを書く



(ウェブ上には掲載しません)


コメントは記事投稿者が公開するまで表示されません。



トラックバック


この記事へのトラックバック一覧です: 春雇 能登空港 2018/5/4 fri:

« 郡山駐屯地創立65周年記念行事 郡山市 2018/4/22 sun | トップページ | 経由 中部国際空港 2018/5/15 tue »